createdAt,value
2023-02-27T00:01:01.682Z,1.85
2023-02-27T00:03:28.296Z,1.81
2023-02-27T00:05:56.231Z,1.76
2023-02-27T00:08:22.741Z,1.72
2023-02-27T00:10:49.039Z,1.68
2023-02-27T00:13:15.291Z,1.64
2023-02-27T00:15:41.600Z,1.59
2023-02-27T00:18:08.121Z,1.56
2023-02-27T00:20:38.358Z,1.51
2023-02-27T00:23:05.721Z,1.51
2023-02-27T00:25:32.847Z,1.49
2023-02-27T00:27:59.260Z,1.51
2023-02-27T00:30:26.489Z,1.49
2023-02-27T00:32:53.462Z,1.47
2023-02-27T00:35:20.408Z,1.48
2023-02-27T00:37:46.676Z,1.44
2023-02-27T00:40:13.244Z,1.37
2023-02-27T00:42:39.721Z,1.36
2023-02-27T00:45:06.859Z,1.32
2023-02-27T00:47:33.966Z,1.29
2023-02-27T00:50:00.277Z,1.24
2023-02-27T00:52:26.684Z,1.23
2023-02-27T00:54:52.951Z,1.21
2023-02-27T00:57:19.429Z,1.17
2023-02-27T00:59:48.519Z,1.14
2023-02-27T01:02:14.898Z,1.17
2023-02-27T01:04:41.352Z,1.14
2023-02-27T01:07:07.996Z,1.10
2023-02-27T01:09:34.350Z,1.06
2023-02-27T01:12:00.674Z,1.02
2023-02-27T01:14:27.097Z,1.01
2023-02-27T01:16:53.503Z,1.00
2023-02-27T01:19:19.794Z,0.96
2023-02-27T01:21:46.154Z,0.94
2023-02-27T01:24:13.104Z,0.91
2023-02-27T01:26:40.120Z,0.88
2023-02-27T01:29:06.637Z,0.84
2023-02-27T01:31:33.349Z,0.81
2023-02-27T01:33:59.965Z,0.76
2023-02-27T01:36:26.307Z,0.76
2023-02-27T01:38:52.690Z,0.75
2023-02-27T01:41:18.986Z,0.75
2023-02-27T01:43:55.920Z,0.73
2023-02-27T01:46:22.430Z,0.71
2023-02-27T01:48:48.853Z,0.70
2023-02-27T01:51:19.102Z,0.66
2023-02-27T01:53:46.895Z,0.64
2023-02-27T01:56:26.889Z,0.60
2023-02-27T01:58:56.335Z,0.57
2023-02-27T02:01:23.261Z,0.52
2023-02-27T02:04:10.054Z,0.45
2023-02-27T02:06:37.540Z,0.45
2023-02-27T02:09:05.008Z,0.43
2023-02-27T02:11:31.461Z,0.42
2023-02-27T02:13:58.838Z,0.43
2023-02-27T02:16:43.752Z,0.46
2023-02-27T02:19:16.253Z,0.47
2023-02-27T02:21:48.422Z,0.48
2023-02-27T02:24:26.636Z,0.49
2023-02-27T02:27:05.021Z,0.49
2023-02-27T02:29:41.926Z,0.47
2023-02-27T02:32:24.241Z,0.45
2023-02-27T02:35:05.874Z,0.42
2023-02-27T02:37:32.198Z,0.43
2023-02-27T02:40:04.810Z,0.44
2023-02-27T02:42:38.492Z,0.44
2023-02-27T02:45:10.864Z,0.42
2023-02-27T02:47:55.771Z,0.43
2023-02-27T02:50:29.071Z,0.43
2023-02-27T02:52:57.653Z,0.38
2023-02-27T02:55:57.508Z,0.34
2023-02-27T02:58:29.779Z,0.31
2023-02-27T03:01:02.040Z,0.28
2023-02-27T03:03:30.207Z,0.23
2023-02-27T03:06:06.770Z,0.21
2023-02-27T03:08:36.852Z,0.18
2023-02-27T03:11:04.399Z,0.17
2023-02-27T03:13:33.769Z,0.18
2023-02-27T03:16:07.354Z,0.16
2023-02-27T03:18:46.888Z,0.13
2023-02-27T03:21:18.532Z,0.12
2023-02-27T03:23:47.316Z,0.12
2023-02-27T03:26:16.437Z,0.10
2023-02-27T03:28:49.882Z,0.10
2023-02-27T03:31:22.673Z,0.11
2023-02-27T03:33:52.901Z,0.08
2023-02-27T03:36:29.176Z,0.08
2023-02-27T03:39:00.250Z,0.05
2023-02-27T03:41:41.361Z,0.05
2023-02-27T03:44:11.390Z,0.04
2023-02-27T03:46:38.100Z,0.02
2023-02-27T03:49:04.808Z,-0.01
2023-02-27T03:51:31.638Z,-0.03
2023-02-27T03:54:04.060Z,-0.04
2023-02-27T03:56:53.486Z,-0.04
2023-02-27T03:59:19.843Z,-0.05
2023-02-27T04:01:46.334Z,-0.07
2023-02-27T04:04:14.100Z,-0.07
2023-02-27T04:07:05.316Z,-0.05
2023-02-27T04:09:46.554Z,-0.07
2023-02-27T04:12:24.777Z,-0.06
2023-02-27T04:15:09.718Z,-0.07
2023-02-27T04:17:48.812Z,-0.06
2023-02-27T04:20:15.187Z,-0.09
2023-02-27T04:22:50.954Z,-0.10
2023-02-27T04:25:36.107Z,-0.10
2023-02-27T04:28:08.362Z,-0.11
2023-02-27T04:30:53.157Z,-0.14
2023-02-27T04:33:22.536Z,-0.20
2023-02-27T04:35:54.345Z,-0.20
2023-02-27T04:38:20.685Z,-0.24
2023-02-27T04:40:59.499Z,-0.25
2023-02-27T04:43:27.578Z,-0.25
2023-02-27T04:45:54.714Z,-0.29
2023-02-27T04:48:24.177Z,-0.31
2023-02-27T04:50:54.038Z,-0.32
2023-02-27T04:53:26.570Z,-0.39
2023-02-27T04:56:13.151Z,-0.43
2023-02-27T04:58:42.223Z,-0.39
2023-02-27T05:01:11.979Z,-0.36
2023-02-27T05:03:41.442Z,-0.37
2023-02-27T05:06:08.600Z,-0.37
2023-02-27T05:08:37.418Z,-0.36
2023-02-27T05:11:14.703Z,-0.38
2023-02-27T05:13:44.538Z,-0.41
2023-02-27T05:16:13.774Z,-0.42
2023-02-27T05:18:40.128Z,-0.41
2023-02-27T05:21:20.915Z,-0.37
2023-02-27T05:23:53.026Z,-0.39
2023-02-27T05:26:22.655Z,-0.40
2023-02-27T05:29:05.427Z,-0.41
2023-02-27T05:31:50.094Z,-0.40
2023-02-27T05:34:27.176Z,-0.41
2023-02-27T05:36:58.168Z,-0.42
2023-02-27T05:39:27.527Z,-0.43
2023-02-27T05:42:00.114Z,-0.43
2023-02-27T05:44:29.656Z,-0.45
2023-02-27T05:46:58.739Z,-0.45
2023-02-27T05:49:33.559Z,-0.46
2023-02-27T05:52:02.870Z,-0.46
2023-02-27T05:54:38.700Z,-0.47
2023-02-27T05:57:08.534Z,-0.47
2023-02-27T05:59:43.437Z,-0.48
2023-02-27T06:02:10.970Z,-0.46
2023-02-27T06:04:37.310Z,-0.46
2023-02-27T06:07:06.919Z,-0.52
2023-02-27T06:09:34.658Z,-0.51
2023-02-27T06:12:01.468Z,-0.47
2023-02-27T06:14:28.073Z,-0.50
2023-02-27T06:16:54.379Z,-0.50
2023-02-27T06:19:20.733Z,-0.51
2023-02-27T06:21:47.058Z,-0.52
2023-02-27T06:24:13.356Z,-0.50
2023-02-27T06:26:39.659Z,-0.51
2023-02-27T06:29:05.959Z,-0.51
2023-02-27T06:31:32.227Z,-0.51
2023-02-27T06:33:58.499Z,-0.51
2023-02-27T06:36:25.099Z,-0.52
2023-02-27T06:38:51.540Z,-0.52
2023-02-27T06:41:17.814Z,-0.50
2023-02-27T06:43:44.377Z,-0.49
2023-02-27T06:46:10.833Z,-0.49
2023-02-27T06:48:37.454Z,-0.48
2023-02-27T06:51:03.841Z,-0.48
2023-02-27T06:53:30.132Z,-0.45
2023-02-27T06:55:56.563Z,-0.42
2023-02-27T06:58:24.839Z,-0.19
2023-02-27T07:00:51.652Z,0.31
2023-02-27T07:03:18.060Z,0.76
2023-02-27T07:05:44.840Z,1.07
2023-02-27T07:08:11.463Z,1.20
2023-02-27T07:10:38.826Z,1.29
2023-02-27T07:13:05.137Z,1.35
2023-02-27T07:15:31.475Z,1.42
2023-02-27T07:17:57.860Z,1.46
2023-02-27T07:20:24.208Z,1.46
2023-02-27T07:22:50.989Z,1.46
2023-02-27T07:25:17.393Z,1.41
2023-02-27T07:27:45.556Z,1.58
2023-02-27T07:30:12.247Z,1.75
2023-02-27T07:32:38.595Z,1.98
2023-02-27T07:35:05.145Z,2.10
2023-02-27T07:37:31.461Z,2.21
2023-02-27T07:39:57.706Z,2.37
2023-02-27T07:42:24.333Z,2.44
2023-02-27T07:44:50.689Z,2.50
2023-02-27T07:47:17.739Z,2.44
2023-02-27T07:49:44.093Z,2.37
2023-02-27T07:52:11.202Z,2.37
2023-02-27T07:54:37.623Z,2.37
2023-02-27T07:57:04.498Z,2.50
2023-02-27T07:59:30.866Z,2.82
2023-02-27T08:01:57.235Z,2.95
2023-02-27T08:04:23.797Z,3.10
2023-02-27T08:06:50.129Z,3.27
2023-02-27T08:09:16.496Z,3.35
2023-02-27T08:11:42.833Z,3.39
2023-02-27T08:14:09.158Z,3.39
2023-02-27T08:16:35.547Z,3.49
2023-02-27T08:19:02.003Z,3.68
2023-02-27T08:21:29.025Z,3.84
2023-02-27T08:23:55.648Z,4.07
2023-02-27T08:26:22.108Z,4.29
2023-02-27T08:28:48.481Z,4.53
2023-02-27T08:31:14.957Z,4.69
2023-02-27T08:33:41.339Z,5.63
2023-02-27T08:36:08.075Z,6.54
2023-02-27T08:38:34.483Z,6.81
2023-02-27T08:41:00.786Z,6.78
2023-02-27T08:43:27.128Z,6.45
2023-02-27T08:45:53.545Z,5.94
2023-02-27T08:48:20.028Z,5.70
2023-02-27T08:50:46.618Z,5.66
2023-02-27T08:53:13.233Z,5.73
2023-02-27T08:55:39.565Z,5.75
2023-02-27T08:58:05.894Z,5.83
2023-02-27T09:00:32.772Z,5.82
2023-02-27T09:03:00.774Z,5.78
2023-02-27T09:05:27.546Z,5.83
2023-02-27T09:07:53.879Z,5.64
2023-02-27T09:10:20.254Z,5.74
2023-02-27T09:12:46.599Z,5.88
2023-02-27T09:15:12.927Z,5.82
2023-02-27T09:17:39.218Z,5.93
2023-02-27T09:20:09.274Z,5.83
2023-02-27T09:22:35.790Z,5.98
2023-02-27T09:25:02.163Z,6.01
2023-02-27T09:27:28.557Z,6.18
2023-02-27T09:29:56.357Z,6.17
2023-02-27T09:32:23.365Z,6.33
2023-02-27T09:34:49.899Z,6.47
2023-02-27T09:37:16.273Z,6.45
2023-02-27T09:39:44.612Z,6.43
2023-02-27T09:42:19.230Z,6.47
2023-02-27T09:44:47.608Z,6.50
2023-02-27T09:47:16.393Z,6.58
2023-02-27T09:50:09.153Z,6.58
2023-02-27T09:52:36.699Z,6.58
2023-02-27T09:55:05.302Z,6.59
2023-02-27T09:57:37.696Z,6.81
2023-02-27T10:00:07.281Z,6.85
2023-02-27T10:02:41.538Z,6.92
2023-02-27T10:05:21.891Z,6.86
2023-02-27T10:08:04.259Z,7.05
2023-02-27T10:10:35.843Z,7.18
2023-02-27T10:13:13.708Z,7.26
2023-02-27T10:15:47.385Z,7.42
2023-02-27T10:18:27.037Z,7.82
2023-02-27T10:20:56.126Z,8.68
2023-02-27T10:23:33.715Z,9.22
2023-02-27T10:26:00.958Z,9.50
2023-02-27T10:28:33.302Z,9.94
2023-02-27T10:31:01.992Z,10.32
2023-02-27T10:33:33.604Z,10.64
2023-02-27T10:36:02.153Z,11.13
2023-02-27T10:38:40.194Z,11.26
2023-02-27T10:41:09.945Z,11.47
2023-02-27T10:43:36.266Z,11.65
2023-02-27T10:46:03.654Z,11.47
2023-02-27T10:48:32.251Z,11.44
2023-02-27T10:51:17.177Z,11.79
2023-02-27T10:53:43.516Z,12.20
2023-02-27T10:56:15.522Z,12.07
2023-02-27T10:58:41.906Z,12.37
2023-02-27T11:01:10.578Z,12.21
2023-02-27T11:03:41.198Z,12.36
2023-02-27T11:06:22.320Z,12.49
2023-02-27T11:09:07.378Z,12.47
2023-02-27T11:11:33.716Z,12.95
2023-02-27T11:14:14.730Z,13.00
2023-02-27T11:16:51.814Z,12.50
2023-02-27T11:19:34.782Z,12.95
2023-02-27T11:22:01.132Z,13.40
2023-02-27T11:24:28.939Z,13.22
2023-02-27T11:26:56.652Z,13.18
2023-02-27T11:29:22.925Z,13.14
2023-02-27T11:31:52.441Z,13.15
2023-02-27T11:34:21.654Z,12.19
2023-02-27T11:36:49.588Z,12.01
2023-02-27T11:39:25.929Z,11.99
2023-02-27T11:41:52.948Z,11.49
2023-02-27T11:44:27.935Z,11.29
2023-02-27T11:47:13.709Z,11.51
2023-02-27T11:49:55.259Z,10.91
2023-02-27T11:52:32.147Z,10.63
2023-02-27T11:55:01.195Z,10.09
2023-02-27T11:57:30.045Z,10.26
2023-02-27T11:59:56.278Z,10.32
2023-02-27T12:02:30.340Z,9.85
2023-02-27T12:05:01.984Z,9.52
2023-02-27T12:07:32.361Z,9.26
2023-02-27T12:10:04.650Z,9.48
2023-02-27T12:12:45.262Z,9.63
2023-02-27T12:15:22.056Z,9.72
2023-02-27T12:17:55.144Z,9.54
2023-02-27T12:20:23.494Z,9.37
2023-02-27T12:22:52.778Z,9.56
2023-02-27T12:25:25.412Z,8.74
2023-02-27T12:27:59.023Z,9.19
2023-02-27T12:30:26.890Z,9.87
2023-02-27T12:33:13.215Z,10.69
2023-02-27T12:35:42.956Z,10.36
2023-02-27T12:38:13.284Z,10.03
2023-02-27T12:40:44.478Z,9.16
2023-02-27T12:43:18.237Z,8.66
2023-02-27T12:45:44.534Z,8.95
2023-02-27T12:48:10.838Z,9.26
2023-02-27T12:50:40.019Z,9.48
2023-02-27T12:53:06.349Z,9.50
2023-02-27T12:55:54.190Z,8.96
2023-02-27T12:58:33.284Z,8.47
2023-02-27T13:01:06.739Z,8.87
2023-02-27T13:03:44.015Z,8.90
2023-02-27T13:06:21.384Z,8.93
2023-02-27T13:08:52.948Z,8.84
2023-02-27T13:11:33.152Z,8.64
2023-02-27T13:14:01.302Z,9.30
2023-02-27T13:16:27.609Z,10.10
2023-02-27T13:18:55.489Z,10.52
2023-02-27T13:21:24.632Z,10.59
2023-02-27T13:24:12.031Z,10.90
2023-02-27T13:26:40.085Z,10.20
2023-02-27T13:29:06.771Z,9.87
2023-02-27T13:31:38.261Z,10.15
2023-02-27T13:34:08.968Z,9.68
2023-02-27T13:36:39.443Z,9.94
2023-02-27T13:39:25.685Z,9.33
2023-02-27T13:41:51.972Z,9.46
2023-02-27T13:44:21.322Z,9.45
2023-02-27T13:46:47.715Z,9.16
2023-02-27T13:49:29.547Z,9.48
2023-02-27T13:51:59.320Z,8.89
2023-02-27T13:54:27.880Z,8.86
2023-02-27T13:56:54.167Z,8.99
2023-02-27T13:59:23.824Z,9.19
2023-02-27T14:01:51.994Z,9.04
2023-02-27T14:04:18.948Z,9.16
2023-02-27T14:06:46.123Z,9.52
2023-02-27T14:09:15.457Z,9.74
2023-02-27T14:11:51.593Z,9.81
2023-02-27T14:14:36.997Z,9.87
2023-02-27T14:17:03.934Z,9.78
2023-02-27T14:19:47.877Z,9.90
2023-02-27T14:22:14.163Z,9.78
2023-02-27T14:25:02.102Z,9.53
2023-02-27T14:27:30.570Z,9.56
2023-02-27T14:29:58.679Z,9.61
2023-02-27T14:32:33.142Z,9.96
2023-02-27T14:35:00.506Z,9.89
2023-02-27T14:37:27.357Z,9.76
2023-02-27T14:39:54.958Z,9.99
2023-02-27T14:42:30.534Z,9.64
2023-02-27T14:44:57.053Z,9.75
2023-02-27T14:47:31.743Z,9.81
2023-02-27T14:49:58.097Z,10.16
2023-02-27T14:52:29.604Z,10.58
2023-02-27T14:55:14.534Z,10.17
2023-02-27T14:57:40.847Z,9.93
2023-02-27T15:00:07.694Z,9.81
2023-02-27T15:02:34.872Z,9.40
2023-02-27T15:05:01.134Z,9.77
2023-02-27T15:07:29.359Z,9.57
2023-02-27T15:09:57.095Z,10.15
2023-02-27T15:12:24.617Z,10.03
2023-02-27T15:14:53.082Z,9.83
2023-02-27T15:17:20.766Z,9.81
2023-02-27T15:19:54.391Z,10.17
2023-02-27T15:22:37.683Z,10.24
2023-02-27T15:25:07.675Z,10.00
2023-02-27T15:27:37.050Z,9.26
2023-02-27T15:30:04.134Z,9.39
2023-02-27T15:32:32.953Z,9.40
2023-02-27T15:35:02.140Z,9.54
2023-02-27T15:37:32.216Z,9.27
2023-02-27T15:39:59.451Z,9.19
2023-02-27T15:42:34.992Z,9.06
2023-02-27T15:45:02.720Z,8.54
2023-02-27T15:47:30.550Z,8.61
2023-02-27T15:50:01.470Z,8.58
2023-02-27T15:52:32.462Z,8.64
2023-02-27T15:55:03.522Z,8.63
2023-02-27T15:57:30.642Z,8.77
2023-02-27T15:59:58.558Z,8.68
2023-02-27T16:02:29.886Z,8.50
2023-02-27T16:04:56.762Z,8.27
2023-02-27T16:07:24.720Z,8.30
2023-02-27T16:10:02.574Z,8.25
2023-02-27T16:12:31.502Z,8.07
2023-02-27T16:15:17.953Z,8.27
2023-02-27T16:17:53.122Z,8.31
2023-02-27T16:20:38.564Z,8.38
2023-02-27T16:23:06.330Z,8.15
2023-02-27T16:25:32.925Z,8.34
2023-02-27T16:27:59.402Z,8.23
2023-02-27T16:30:25.802Z,8.37
2023-02-27T16:32:58.730Z,8.27
2023-02-27T16:35:25.531Z,8.17
2023-02-27T16:37:53.375Z,8.18
2023-02-27T16:40:19.672Z,8.21
2023-02-27T16:42:46.476Z,8.08
2023-02-27T16:45:17.338Z,8.07
2023-02-27T16:47:43.857Z,8.04
2023-02-27T16:50:19.301Z,8.20
2023-02-27T16:52:45.609Z,8.03
2023-02-27T16:55:12.015Z,7.82
2023-02-27T16:57:38.279Z,7.87
2023-02-27T17:00:08.406Z,7.96
2023-02-27T17:02:34.745Z,7.80
2023-02-27T17:05:02.121Z,7.72
2023-02-27T17:07:28.444Z,7.79
2023-02-27T17:09:54.961Z,7.76
2023-02-27T17:12:21.248Z,7.65
2023-02-27T17:14:47.806Z,7.68
2023-02-27T17:17:14.080Z,7.72
2023-02-27T17:19:40.680Z,7.72
2023-02-27T17:22:07.046Z,7.66
2023-02-27T17:24:33.882Z,7.56
2023-02-27T17:27:00.165Z,7.55
2023-02-27T17:29:26.481Z,7.52
2023-02-27T17:31:52.970Z,7.43
2023-02-27T17:34:19.346Z,7.42
2023-02-27T17:36:45.629Z,7.38
2023-02-27T17:39:13.773Z,7.29
2023-02-27T17:41:40.546Z,7.22
2023-02-27T17:44:06.916Z,7.05
2023-02-27T17:46:33.423Z,6.99
2023-02-27T17:49:00.533Z,7.00
2023-02-27T17:51:27.849Z,6.91
2023-02-27T17:53:54.345Z,6.97
2023-02-27T17:56:20.676Z,6.96
2023-02-27T17:58:46.945Z,6.78
2023-02-27T18:01:15.215Z,6.87
2023-02-27T18:03:41.646Z,6.86
2023-02-27T18:06:08.020Z,6.85
2023-02-27T18:08:34.357Z,6.81
2023-02-27T18:11:03.777Z,6.58
2023-02-27T18:13:30.597Z,6.56
2023-02-27T18:15:56.955Z,6.55
2023-02-27T18:18:23.455Z,6.55
2023-02-27T18:20:59.357Z,6.41
2023-02-27T18:23:25.676Z,6.42
2023-02-27T18:25:56.008Z,6.42
2023-02-27T18:28:22.441Z,6.41
2023-02-27T18:30:48.805Z,6.41
2023-02-27T18:33:15.387Z,6.41
2023-02-27T18:35:41.781Z,6.38
2023-02-27T18:38:08.149Z,6.36
2023-02-27T18:40:34.683Z,6.38
2023-02-27T18:43:01.028Z,6.31
2023-02-27T18:45:29.560Z,6.33
2023-02-27T18:47:55.995Z,6.26
2023-02-27T18:50:22.314Z,6.23
2023-02-27T18:52:48.743Z,6.22
2023-02-27T18:55:15.136Z,6.20
2023-02-27T18:57:41.437Z,6.17
2023-02-27T19:00:08.132Z,6.17
2023-02-27T19:02:37.200Z,6.14
2023-02-27T19:05:03.699Z,6.12
2023-02-27T19:07:30.023Z,6.06
2023-02-27T19:09:56.341Z,6.05
2023-02-27T19:12:22.654Z,6.02
2023-02-27T19:14:49.651Z,5.98
2023-02-27T19:17:15.907Z,5.92
2023-02-27T19:19:42.232Z,5.88
2023-02-27T19:22:08.513Z,5.88
2023-02-27T19:24:34.769Z,5.83
2023-02-27T19:27:03.865Z,5.79
2023-02-27T19:29:30.135Z,5.77
2023-02-27T19:31:56.516Z,5.72
2023-02-27T19:34:22.777Z,5.64
2023-02-27T19:36:49.046Z,5.64
2023-02-27T19:39:15.369Z,5.62
2023-02-27T19:41:41.628Z,5.58
2023-02-27T19:44:08.392Z,5.56
2023-02-27T19:46:35.190Z,5.51
2023-02-27T19:49:04.318Z,5.48
2023-02-27T19:51:30.730Z,5.47
2023-02-27T19:53:57.198Z,5.45
2023-02-27T19:56:25.006Z,5.42
2023-02-27T19:58:52.002Z,5.39
2023-02-27T20:01:24.373Z,5.36
2023-02-27T20:03:50.713Z,5.32
2023-02-27T20:06:18.478Z,5.28
2023-02-27T20:08:45.231Z,5.26
2023-02-27T20:11:13.362Z,5.23
2023-02-27T20:13:39.969Z,5.18
2023-02-27T20:16:07.441Z,5.13
2023-02-27T20:18:34.483Z,5.10
2023-02-27T20:21:00.821Z,5.08
2023-02-27T20:23:27.473Z,5.06
2023-02-27T20:25:53.784Z,5.02
2023-02-27T20:28:20.546Z,4.99
2023-02-27T20:30:46.907Z,4.96
2023-02-27T20:33:13.218Z,4.92
2023-02-27T20:35:39.584Z,4.92
2023-02-27T20:38:06.379Z,4.91
2023-02-27T20:40:33.120Z,4.89
2023-02-27T20:42:59.491Z,4.86
2023-02-27T20:45:25.972Z,4.88
2023-02-27T20:47:52.239Z,4.91
2023-02-27T20:50:18.660Z,4.96
2023-02-27T20:52:44.986Z,4.96
2023-02-27T20:55:13.602Z,4.97
2023-02-27T20:57:39.922Z,4.97
2023-02-27T21:00:06.604Z,4.97
2023-02-27T21:02:32.913Z,4.96
2023-02-27T21:04:59.418Z,4.90
2023-02-27T21:07:25.752Z,4.86
2023-02-27T21:09:52.153Z,4.85
2023-02-27T21:12:18.466Z,4.85
2023-02-27T21:14:45.304Z,4.85
2023-02-27T21:17:11.642Z,4.83
2023-02-27T21:19:39.758Z,4.80
2023-02-27T21:22:07.387Z,4.78
2023-02-27T21:24:33.845Z,4.75
2023-02-27T21:27:00.231Z,4.70
2023-02-27T21:29:26.616Z,4.72
2023-02-27T21:31:53.063Z,4.76
2023-02-27T21:34:21.056Z,4.69
2023-02-27T21:36:47.559Z,4.71
2023-02-27T21:39:15.443Z,4.77
2023-02-27T21:41:41.913Z,4.80
2023-02-27T21:44:12.550Z,4.82
2023-02-27T21:46:38.955Z,4.84
2023-02-27T21:49:05.350Z,4.89
2023-02-27T21:51:40.115Z,4.94
2023-02-27T21:54:07.426Z,4.95
2023-02-27T21:56:33.798Z,4.97
2023-02-27T21:59:01.566Z,5.01
2023-02-27T22:01:28.993Z,5.04
2023-02-27T22:03:55.555Z,5.07
2023-02-27T22:06:23.539Z,5.11
2023-02-27T22:08:56.615Z,5.14
2023-02-27T22:11:23.642Z,5.16
2023-02-27T22:13:49.919Z,5.19
2023-02-27T22:16:16.285Z,5.22
2023-02-27T22:18:42.716Z,5.26
2023-02-27T22:21:16.010Z,5.31
2023-02-27T22:23:43.375Z,5.35
2023-02-27T22:26:11.080Z,5.36
2023-02-27T22:28:39.736Z,5.38
2023-02-27T22:31:10.685Z,5.44
2023-02-27T22:33:37.393Z,5.46
2023-02-27T22:36:29.991Z,5.50
2023-02-27T22:38:56.564Z,5.54
2023-02-27T22:41:30.638Z,5.53
2023-02-27T22:43:58.155Z,5.54
2023-02-27T22:46:28.618Z,5.51
2023-02-27T22:48:59.104Z,5.54
2023-02-27T22:51:27.647Z,5.57
2023-02-27T22:53:54.699Z,5.58
2023-02-27T22:56:21.094Z,5.58
2023-02-27T22:58:47.904Z,5.61
2023-02-27T23:01:15.973Z,5.66
2023-02-27T23:03:43.125Z,5.68
2023-02-27T23:06:10.560Z,5.71
2023-02-27T23:08:37.290Z,5.72
2023-02-27T23:11:03.746Z,5.73
2023-02-27T23:13:31.947Z,5.69
2023-02-27T23:15:59.137Z,5.68
2023-02-27T23:18:25.492Z,5.63
2023-02-27T23:20:51.747Z,5.70
2023-02-27T23:23:18.107Z,5.70
2023-02-27T23:25:44.449Z,5.71
2023-02-27T23:28:12.267Z,5.71
2023-02-27T23:30:38.580Z,5.76
2023-02-27T23:33:04.883Z,5.79
2023-02-27T23:35:31.353Z,5.76
2023-02-27T23:37:58.985Z,5.75
2023-02-27T23:40:26.394Z,5.77
2023-02-27T23:43:11.515Z,5.79
2023-02-27T23:45:38.087Z,5.81
2023-02-27T23:48:04.567Z,5.81
2023-02-27T23:50:35.527Z,5.79
2023-02-27T23:53:01.970Z,5.75
2023-02-27T23:55:29.381Z,5.78
2023-02-27T23:57:56.514Z,5.74
